Time;durP1;ratioP1;P1;durP2;ratioP2;P2;SDS_P1;SDS_P2;PMS_P1;PMS_P2;Temp;Humidity;BMP_temperature;BMP_pressure;BME280_temperature;BME280_humidity;BME280_pressure;Samples;Min_cycle;Max_cycle;Signal;HPM_P1;HPM_P2
2023/08/05 00:00:53;;;;;;;3.25;0.30;;;14.00;99.90;;;;;;5035933;28;20026;-75
2023/08/05 00:03:19;;;;;;;0.80;0.43;;;14.10;99.90;;;;;;5034744;28;20084;-75
2023/08/05 00:05:44;;;;;;;4.55;0.38;;;14.10;99.90;;;;;;5035035;28;20029;-75
2023/08/05 00:08:10;;;;;;;1.42;0.30;;;14.20;99.90;;;;;;5035795;28;20021;-75
2023/08/05 00:10:35;;;;;;;4.47;1.02;;;14.20;99.90;;;;;;5035748;28;20026;-75
2023/08/05 00:13:01;;;;;;;1.33;0.45;;;14.20;99.90;;;;;;5035890;28;20057;-75
2023/08/05 00:15:27;;;;;;;0.75;0.20;;;14.30;99.90;;;;;;5035856;28;20029;-75
2023/08/05 00:17:52;;;;;;;2.08;0.63;;;14.40;99.90;;;;;;5035791;28;20017;-75
2023/08/05 00:20:18;;;;;;;3.38;0.70;;;14.40;99.90;;;;;;5035814;28;20021;-75
2023/08/05 00:22:44;;;;;;;1.48;0.40;;;14.40;99.90;;;;;;5035699;28;20515;-75
2023/08/05 00:25:09;;;;;;;3.28;0.60;;;14.40;99.90;;;;;;5035471;28;20124;-75
2023/08/05 00:27:35;;;;;;;1.77;0.40;;;14.50;99.90;;;;;;5035809;28;20052;-75
2023/08/05 00:30:00;;;;;;;2.25;0.60;;;14.50;99.90;;;;;;5036112;28;20460;-75
2023/08/05 00:32:34;;;;;;;2.88;0.57;;;14.60;99.90;;;;;;5035459;28;20021;-75
2023/08/05 00:35:00;;;;;;;0.85;0.25;;;14.60;99.90;;;;;;5035308;28;20026;-75
2023/08/05 00:37:25;;;;;;;1.52;0.68;;;14.70;99.90;;;;;;5035826;28;20037;-75
2023/08/05 00:39:51;;;;;;;6.45;0.85;;;14.70;99.90;;;;;;5035317;28;20047;-75
2023/08/05 00:42:18;;;;;;;3.10;0.68;;;14.60;99.90;;;;;;5035341;28;20056;-75
2023/08/05 00:44:44;;;;;;;1.55;0.47;;;14.70;99.90;;;;;;5035271;28;20497;-75
2023/08/05 00:47:10;;;;;;;1.38;0.30;;;14.70;99.90;;;;;;5035244;28;20026;-75
2023/08/05 00:49:36;;;;;;;2.58;0.47;;;14.70;99.90;;;;;;5033957;28;20043;-75
2023/08/05 00:52:03;;;;;;;2.75;0.70;;;14.80;99.90;;;;;;5035202;28;20454;-75
2023/08/05 00:54:29;;;;;;;2.25;0.73;;;14.80;99.90;;;;;;5035288;28;20048;-75
2023/08/05 00:56:54;;;;;;;0.70;0.30;;;14.80;99.90;;;;;;5035039;28;20018;-75
2023/08/05 00:59:20;;;;;;;2.30;0.80;;;14.80;99.90;;;;;;5033538;28;20116;-75
2023/08/05 01:01:46;;;;;;;2.47;0.40;;;14.80;99.90;;;;;;5035835;28;20131;-75
2023/08/05 01:04:11;;;;;;;2.08;0.45;;;14.80;99.90;;;;;;5034927;28;20026;-75
2023/08/05 01:06:37;;;;;;;1.85;0.70;;;14.80;99.90;;;;;;5035227;28;20080;-75
2023/08/05 01:09:03;;;;;;;5.40;0.57;;;14.80;99.90;;;;;;5033496;28;20026;-75
2023/08/05 01:11:29;;;;;;;0.90;0.30;;;14.80;99.90;;;;;;5033297;28;20025;-75
2023/08/05 01:13:54;;;;;;;3.65;0.85;;;14.90;99.90;;;;;;5034651;28;20496;-75
2023/08/05 01:16:20;;;;;;;1.92;0.80;;;14.80;99.90;;;;;;5034765;28;20103;-75
2023/08/05 01:18:46;;;;;;;1.15;0.57;;;14.80;99.90;;;;;;5034720;28;20021;-75
2023/08/05 01:21:36;;;;;;;3.88;0.50;;;14.80;99.90;;;;;;5033967;28;20028;-75
2023/08/05 01:24:14;;;;;;;1.70;0.63;;;14.80;99.90;;;;;;5033236;28;20424;-74
2023/08/05 01:26:40;;;;;;;2.55;0.70;;;14.80;99.90;;;;;;5033479;28;20026;-75
2023/08/05 01:29:07;;;;;;;4.00;0.38;;;14.80;99.90;;;;;;5034644;28;20022;-75
2023/08/05 01:31:34;;;;;;;7.53;1.23;;;14.80;99.90;;;;;;5033053;28;20397;-75
2023/08/05 01:34:00;;;;;;;2.58;0.45;;;14.80;99.90;;;;;;5034293;28;20393;-74
2023/08/05 01:36:26;;;;;;;1.90;0.50;;;14.80;99.90;;;;;;5033132;28;20049;-75
2023/08/05 01:38:51;;;;;;;2.30;0.50;;;14.80;99.90;;;;;;5034320;28;20064;-75
2023/08/05 01:41:17;;;;;;;3.20;0.60;;;14.80;99.90;;;;;;5034274;28;20029;-75
2023/08/05 01:43:43;;;;;;;1.13;0.77;;;14.80;99.90;;;;;;5034567;28;20030;-75
2023/08/05 01:46:09;;;;;;;6.38;0.65;;;14.70;99.90;;;;;;5034293;28;20049;-75
2023/08/05 01:48:34;;;;;;;1.35;0.50;;;14.70;99.90;;;;;;5034158;28;20022;-75
2023/08/05 01:51:00;;;;;;;2.67;0.65;;;14.70;99.90;;;;;;5034426;28;20030;-75
2023/08/05 01:53:25;;;;;;;4.18;0.70;;;14.70;99.90;;;;;;5032702;28;20070;-75
2023/08/05 01:55:51;;;;;;;3.00;0.50;;;14.50;99.90;;;;;;5033738;28;20104;-75
2023/08/05 01:58:16;;;;;;;2.70;0.70;;;14.60;99.90;;;;;;5033797;28;20048;-75
2023/08/05 02:00:50;;;;;;;9.93;0.80;;;14.50;99.90;;;;;;5033754;28;20390;-75
2023/08/05 02:03:15;;;;;;;2.35;0.77;;;14.40;99.90;;;;;;5034006;28;20477;-75
2023/08/05 02:05:41;;;;;;;2.47;0.47;;;14.40;99.90;;;;;;5032472;28;20014;-75
2023/08/05 02:08:06;;;;;;;2.90;0.85;;;14.40;99.90;;;;;;5034452;28;20447;-75
2023/08/05 02:10:32;;;;;;;1.65;0.68;;;14.40;99.90;;;;;;5033814;28;20098;-75
2023/08/05 02:12:58;;;;;;;1.88;0.50;;;14.40;99.90;;;;;;5033680;28;20029;-75
2023/08/05 02:15:23;;;;;;;0.70;0.47;;;14.50;99.90;;;;;;5032433;28;20380;-75
2023/08/05 02:17:49;;;;;;;2.42;0.60;;;14.40;99.90;;;;;;5032512;28;20022;-75
2023/08/05 02:20:15;;;;;;;1.85;0.50;;;14.50;99.90;;;;;;5033533;28;20026;-75
2023/08/05 02:22:41;;;;;;;2.90;0.50;;;14.50;99.90;;;;;;5034249;28;20362;-75
2023/08/05 02:25:07;;;;;;;2.70;0.75;;;14.50;99.90;;;;;;5033555;28;20060;-75
2023/08/05 02:27:32;;;;;;;2.13;1.17;;;14.60;99.90;;;;;;5033603;28;20366;-75
2023/08/05 02:29:58;;;;;;;5.47;1.45;;;14.60;99.90;;;;;;5033308;28;20029;-75
2023/08/05 02:32:24;;;;;;;1.17;0.68;;;14.70;99.90;;;;;;5032751;28;20510;-75
2023/08/05 02:34:49;;;;;;;1.98;1.02;;;14.70;99.90;;;;;;5033339;28;20555;-75
2023/08/05 02:37:15;;;;;;;2.95;1.10;;;14.70;99.90;;;;;;5033318;28;20048;-75
2023/08/05 02:39:40;;;;;;;3.13;0.90;;;14.70;99.90;;;;;;5032030;28;20393;-75
2023/08/05 02:42:07;;;;;;;2.40;0.98;;;14.80;99.90;;;;;;5033407;28;20485;-75
2023/08/05 02:44:32;;;;;;;6.55;1.17;;;14.80;99.90;;;;;;5032034;28;20479;-75
2023/08/05 02:46:58;;;;;;;2.78;1.17;;;14.80;99.90;;;;;;5033357;28;20025;-75
2023/08/05 02:49:23;;;;;;;5.00;1.23;;;14.80;99.90;;;;;;5033250;28;20033;-75
2023/08/05 02:51:49;;;;;;;3.25;1.35;;;14.90;99.90;;;;;;5033170;28;20021;-75
2023/08/05 02:54:16;;;;;;;3.95;1.80;;;14.90;99.90;;;;;;5033184;28;20024;-75
2023/08/05 02:56:42;;;;;;;1.95;1.10;;;14.80;99.90;;;;;;5033474;28;20044;-75
2023/08/05 02:59:08;;;;;;;5.05;1.00;;;14.90;99.90;;;;;;5033436;28;20033;-75
2023/08/05 03:01:35;;;;;;;8.43;1.95;;;14.90;99.90;;;;;;5033161;28;20069;-75
2023/08/05 03:04:01;;;;;;;2.50;1.33;;;14.90;99.90;;;;;;5031805;28;20017;-75
2023/08/05 03:06:27;;;;;;;4.00;1.48;;;14.90;99.90;;;;;;5033023;28;20710;-75
2023/08/05 03:08:52;;;;;;;3.13;1.35;;;14.90;99.90;;;;;;5033487;28;20034;-75
2023/08/05 03:11:18;;;;;;;3.42;1.70;;;14.90;99.90;;;;;;5033635;28;20026;-75
2023/08/05 03:13:43;;;;;;;7.35;2.28;;;14.90;99.90;;;;;;5032983;28;20026;-75
2023/08/05 03:16:11;;;;;;;6.13;1.45;;;14.90;99.90;;;;;;5033127;28;20022;-75
2023/08/05 03:18:37;;;;;;;4.38;2.22;;;14.90;99.90;;;;;;5032994;28;20026;-75
2023/08/05 03:21:02;;;;;;;3.33;1.40;;;14.90;99.90;;;;;;5033168;28;20515;-75
2023/08/05 03:23:28;;;;;;;4.75;1.85;;;14.90;99.90;;;;;;5031636;28;20025;-75
2023/08/05 03:25:54;;;;;;;4.97;2.58;;;14.90;99.90;;;;;;5032790;28;20021;-75
2023/08/05 03:28:20;;;;;;;6.97;2.25;;;14.80;99.90;;;;;;5031691;28;20435;-75
2023/08/05 03:30:45;;;;;;;6.30;2.72;;;14.90;99.90;;;;;;5032813;28;20022;-75
2023/08/05 03:33:11;;;;;;;4.15;2.65;;;15.00;99.90;;;;;;5032912;28;20029;-75
2023/08/05 03:35:43;;;;;;;4.85;2.83;;;15.00;99.90;;;;;;5031625;28;20220;-75
2023/08/05 03:38:08;;;;;;;4.50;2.60;;;15.00;99.90;;;;;;5031679;28;20021;-75
2023/08/05 03:40:34;;;;;;;5.20;2.40;;;15.00;99.90;;;;;;5031681;28;20112;-75
2023/08/05 03:42:59;;;;;;;7.70;2.97;;;15.00;99.90;;;;;;5033348;28;20021;-75
2023/08/05 03:45:25;;;;;;;6.50;2.45;;;14.90;99.90;;;;;;5035059;28;20453;-75
2023/08/05 03:47:51;;;;;;;5.05;2.50;;;14.90;99.90;;;;;;5036436;28;20424;-75
2023/08/05 03:50:17;;;;;;;6.55;3.42;;;14.90;99.90;;;;;;5037047;28;20083;-75
2023/08/05 03:52:43;;;;;;;4.72;2.35;;;14.90;99.90;;;;;;5036380;28;20032;-75
2023/08/05 03:55:09;;;;;;;6.45;2.75;;;14.80;99.90;;;;;;5036470;28;20022;-75
2023/08/05 03:57:34;;;;;;;6.88;2.95;;;14.80;99.90;;;;;;5036233;28;20029;-75
2023/08/05 04:00:00;;;;;;;5.70;2.13;;;14.80;99.90;;;;;;5036268;28;20029;-75
2023/08/05 04:02:26;;;;;;;6.28;2.78;;;14.80;99.90;;;;;;5036330;28;20029;-75
2023/08/05 04:04:52;;;;;;;5.43;2.70;;;14.70;99.90;;;;;;5036214;28;20036;-75
2023/08/05 04:07:19;;;;;;;4.85;2.72;;;14.70;99.90;;;;;;5036051;28;20029;-75
2023/08/05 04:09:45;;;;;;;6.18;2.67;;;14.70;99.90;;;;;;5034951;28;20400;-75
2023/08/05 04:12:13;;;;;;;6.15;2.40;;;14.70;99.90;;;;;;5034551;28;20025;-75
2023/08/05 04:14:39;;;;;;;5.47;2.53;;;14.60;99.90;;;;;;5035808;28;20021;-75
2023/08/05 04:17:05;;;;;;;5.28;2.70;;;14.60;99.90;;;;;;5035763;28;20013;-75
2023/08/05 04:19:32;;;;;;;7.80;3.25;;;14.60;99.90;;;;;;5034573;28;20431;-75
2023/08/05 04:22:00;;;;;;;6.97;2.83;;;14.60;99.90;;;;;;5036330;28;20095;-75
2023/08/05 04:24:27;;;;;;;7.32;2.72;;;14.60;99.90;;;;;;5034424;28;20017;-75
2023/08/05 04:26:53;;;;;;;6.25;2.90;;;14.50;99.90;;;;;;5035737;28;20026;-75
2023/08/05 04:29:22;;;;;;;5.50;2.45;;;14.50;99.90;;;;;;5035917;28;20075;-75
2023/08/05 04:31:48;;;;;;;8.23;2.80;;;14.50;99.90;;;;;;5035497;28;20473;-75
2023/08/05 04:34:14;;;;;;;7.82;2.97;;;14.50;99.90;;;;;;5034275;28;20021;-75
2023/08/05 04:36:39;;;;;;;6.78;2.90;;;14.50;99.90;;;;;;5035361;28;20388;-75
2023/08/05 04:39:06;;;;;;;7.47;4.32;;;14.50;99.90;;;;;;5035345;28;20101;-75
2023/08/05 04:41:32;;;;;;;9.57;3.30;;;14.50;99.90;;;;;;5035604;28;20151;-75
2023/08/05 04:43:58;;;;;;;9.75;4.38;;;14.50;99.90;;;;;;5035237;28;20068;-75
2023/08/05 04:46:23;;;;;;;5.18;3.25;;;14.50;99.90;;;;;;5035370;28;20021;-75
2023/08/05 04:48:49;;;;;;;7.95;3.95;;;14.50;99.90;;;;;;5035852;28;20029;-75
2023/08/05 04:51:14;;;;;;;8.20;4.50;;;14.60;99.90;;;;;;5035221;28;20373;-75
2023/08/05 04:53:40;;;;;;;6.20;3.42;;;14.50;99.90;;;;;;5035135;28;20022;-75
2023/08/05 04:56:05;;;;;;;8.38;4.28;;;14.50;99.90;;;;;;5034076;28;20366;-75
2023/08/05 04:58:31;;;;;;;5.32;3.28;;;14.60;99.90;;;;;;5034844;28;20489;-75
2023/08/05 05:00:57;;;;;;;9.05;3.90;;;14.50;99.90;;;;;;5035458;28;20112;-75
2023/08/05 05:03:23;;;;;;;11.75;4.55;;;14.50;99.90;;;;;;5035061;28;20053;-75
2023/08/05 05:05:49;;;;;;;14.32;3.78;;;14.60;99.90;;;;;;5034757;28;20037;-75
2023/08/05 05:08:15;;;;;;;7.47;3.50;;;14.50;99.90;;;;;;5034907;28;20030;-75
2023/08/05 05:10:45;;;;;;;11.55;4.55;;;14.60;99.90;;;;;;5034741;28;20374;-75
2023/08/05 05:13:11;;;;;;;7.75;4.10;;;14.60;99.90;;;;;;5035372;28;20101;-75
2023/08/05 05:15:39;;;;;;;6.28;3.92;;;14.60;99.90;;;;;;5034623;28;20520;-75
2023/08/05 05:18:05;;;;;;;9.82;4.15;;;14.60;99.90;;;;;;5033373;28;20029;-75
2023/08/05 05:20:30;;;;;;;5.72;3.70;;;14.60;99.90;;;;;;5033360;28;20469;-75
2023/08/05 05:22:56;;;;;;;11.35;3.83;;;14.60;99.90;;;;;;5034527;28;20106;-75
2023/08/05 05:25:22;;;;;;;8.82;3.92;;;14.60;99.90;;;;;;5034792;28;20029;-75
2023/08/05 05:27:48;;;;;;;8.07;3.70;;;14.60;99.90;;;;;;5035037;28;20097;-75
2023/08/05 05:30:14;;;;;;;9.73;3.78;;;14.70;99.90;;;;;;5033020;28;20063;-75
2023/08/05 05:32:39;;;;;;;8.63;4.38;;;14.70;99.90;;;;;;5034203;28;20025;-75
2023/08/05 05:35:05;;;;;;;6.30;3.40;;;14.80;99.90;;;;;;5034178;28;20025;-75
2023/08/05 05:37:33;;;;;;;6.35;3.47;;;14.80;99.90;;;;;;5034252;28;20124;-75
2023/08/05 05:39:59;;;;;;;9.38;3.72;;;14.80;99.90;;;;;;5034181;28;20028;-75
2023/08/05 05:42:24;;;;;;;5.90;3.10;;;14.90;99.90;;;;;;5034152;28;20033;-74
2023/08/05 05:44:52;;;;;;;6.90;3.45;;;14.90;99.90;;;;;;5034764;28;20083;-75
2023/08/05 05:47:19;;;;;;;8.82;3.45;;;14.90;99.90;;;;;;5034202;28;20025;-75
2023/08/05 05:49:44;;;;;;;7.80;4.05;;;14.90;99.90;;;;;;5032874;28;20017;-75
2023/08/05 05:52:13;;;;;;;10.50;3.78;;;14.90;99.90;;;;;;5033021;28;20445;-75
2023/08/05 05:54:38;;;;;;;7.57;3.58;;;15.00;99.90;;;;;;5034107;28;20041;-75
2023/08/05 05:57:04;;;;;;;7.28;3.50;;;15.00;99.90;;;;;;5034556;28;20140;-75
2023/08/05 05:59:30;;;;;;;11.73;4.00;;;15.00;99.90;;;;;;5033749;28;20037;-75
2023/08/05 06:01:55;;;;;;;7.18;3.35;;;15.00;99.90;;;;;;5033882;28;20017;-75
2023/08/05 06:04:21;;;;;;;9.88;3.88;;;15.10;99.90;;;;;;5032512;28;20449;-75
2023/08/05 06:06:48;;;;;;;7.53;3.55;;;15.20;99.90;;;;;;5033906;28;20100;-74
2023/08/05 06:09:14;;;;;;;8.55;3.75;;;15.20;99.90;;;;;;5032401;28;20029;-75
2023/08/05 06:11:40;;;;;;;10.23;4.13;;;15.30;99.90;;;;;;5032513;28;20033;-75
2023/08/05 06:14:05;;;;;;;7.57;3.80;;;15.30;99.90;;;;;;5034234;28;20021;-75
2023/08/05 06:16:32;;;;;;;10.43;3.85;;;15.40;99.90;;;;;;5033503;28;20017;-75
2023/08/05 06:18:57;;;;;;;9.70;3.90;;;15.50;99.90;;;;;;5033984;28;20037;-75
2023/08/05 06:21:23;;;;;;;6.70;3.55;;;15.50;99.90;;;;;;5032309;28;20033;-75
2023/08/05 06:23:49;;;;;;;6.25;3.28;;;15.60;99.90;;;;;;5033466;28;20028;-75
2023/08/05 06:26:14;;;;;;;7.90;4.20;;;15.70;99.90;;;;;;5033989;28;20017;-75
2023/08/05 06:28:40;;;;;;;10.90;4.22;;;15.80;99.90;;;;;;5032135;28;20032;-75
2023/08/05 06:31:05;;;;;;;8.10;3.97;;;15.80;99.90;;;;;;5033367;28;20029;-75
2023/08/05 06:33:31;;;;;;;7.60;3.50;;;15.90;99.90;;;;;;5032135;28;20075;-75
2023/08/05 06:35:57;;;;;;;6.82;3.60;;;16.00;99.90;;;;;;5033417;28;20026;-75
2023/08/05 06:38:24;;;;;;;10.05;3.95;;;16.00;99.90;;;;;;5033566;28;20036;-75
2023/08/05 06:40:51;;;;;;;6.07;2.92;;;16.10;99.90;;;;;;5033376;28;20072;-75
2023/08/05 06:43:17;;;;;;;13.40;4.30;;;16.20;99.90;;;;;;5033695;28;20016;-75
2023/08/05 06:45:42;;;;;;;8.25;4.20;;;16.20;99.90;;;;;;5033280;28;20021;-75
2023/08/05 06:48:08;;;;;;;4.40;3.00;;;16.20;99.90;;;;;;5033377;28;20393;-75
2023/08/05 06:50:34;;;;;;;9.05;3.35;;;16.20;99.90;;;;;;5032091;28;20025;-75
2023/08/05 06:52:59;;;;;;;6.03;3.13;;;16.20;99.90;;;;;;5033190;28;20029;-75
2023/08/05 06:55:25;;;;;;;7.80;3.17;;;16.20;99.90;;;;;;5033092;28;20393;-75
2023/08/05 06:57:50;;;;;;;5.90;3.45;;;16.10;99.90;;;;;;5033899;28;20358;-75
2023/08/05 07:00:16;;;;;;;6.38;2.92;;;16.20;99.90;;;;;;5031996;28;20025;-75
2023/08/05 07:02:43;;;;;;;5.10;3.00;;;16.20;99.90;;;;;;5033572;28;20037;-75
2023/08/05 07:05:08;;;;;;;5.57;3.15;;;16.40;99.90;;;;;;5033338;28;20109;-75
2023/08/05 07:07:34;;;;;;;5.63;3.03;;;16.60;99.90;;;;;;5031921;28;20053;-75
2023/08/05 07:10:07;;;;;;;7.15;3.67;;;16.80;99.90;;;;;;5033201;28;20028;-75
2023/08/05 07:12:34;;;;;;;5.25;2.88;;;17.10;99.90;;;;;;5032990;28;20048;-75
2023/08/05 07:14:59;;;;;;;8.10;3.13;;;17.30;99.90;;;;;;5032934;28;20501;-75
2023/08/05 07:17:25;;;;;;;7.55;3.00;;;17.50;99.90;;;;;;5033041;28;20020;-75
2023/08/05 07:19:51;;;;;;;6.55;2.75;;;17.60;99.90;;;;;;5035148;28;20013;-74
2023/08/05 07:22:16;;;;;;;7.25;3.03;;;17.80;99.90;;;;;;5037463;28;20029;-75
2023/08/05 07:24:42;;;;;;;6.20;2.90;;;18.00;99.90;;;;;;5035675;28;20014;-75
2023/08/05 07:27:07;;;;;;;4.60;2.42;;;18.20;99.90;;;;;;5037062;28;20511;-75
2023/08/05 07:29:33;;;;;;;6.95;2.45;;;18.30;99.90;;;;;;5036894;28;20151;-75
2023/08/05 07:31:59;;;;;;;4.47;2.17;;;18.40;99.90;;;;;;5036893;28;20416;-75
2023/08/05 07:34:30;;;;;;;5.53;2.33;;;18.40;99.90;;;;;;5036919;28;20392;-75
2023/08/05 07:36:55;;;;;;;6.00;2.42;;;18.50;99.90;;;;;;5036948;28;20532;-75
2023/08/05 07:39:22;;;;;;;6.13;2.10;;;18.60;99.90;;;;;;5036524;28;20056;-75
2023/08/05 07:41:49;;;;;;;4.10;1.65;;;18.70;99.90;;;;;;5036669;28;20021;-75
2023/08/05 07:44:15;;;;;;;5.15;1.95;;;18.70;99.90;;;;;;5036541;28;20033;-75
2023/08/05 07:46:41;;;;;;;4.78;2.13;;;18.80;99.90;;;;;;5036634;28;20477;-75
2023/08/05 07:49:07;;;;;;;6.85;2.60;;;18.80;99.90;;;;;;5036671;28;20025;-75
2023/08/05 07:51:33;;;;;;;4.70;2.38;;;18.70;99.90;;;;;;5036951;28;20510;-75
2023/08/05 07:53:59;;;;;;;7.10;3.65;;;18.80;99.90;;;;;;5036515;28;20032;-75
2023/08/05 07:56:25;;;;;;;4.95;2.75;;;18.80;99.90;;;;;;5036245;28;20029;-75
2023/08/05 07:58:51;;;;;;;4.15;3.03;;;18.80;99.90;;;;;;5036221;28;20465;-75
2023/08/05 08:01:19;;;;;;;6.93;2.50;;;18.80;99.90;;;;;;5036566;28;20033;-75
2023/08/05 08:03:45;;;;;;;5.70;2.88;;;18.80;99.90;;;;;;5036198;28;20165;-75
2023/08/05 08:06:15;;;;;;;8.50;3.28;;;18.90;99.90;;;;;;5036319;28;20472;-75
2023/08/05 08:08:41;;;;;;;4.45;2.33;;;19.00;99.90;;;;;;5036298;28;20075;-75
2023/08/05 08:11:07;;;;;;;7.00;3.08;;;19.10;99.90;;;;;;5035981;28;20431;-74
2023/08/05 08:13:32;;;;;;;5.32;2.70;;;19.10;99.90;;;;;;5036236;28;20021;-75
2023/08/05 08:15:58;;;;;;;5.45;2.35;;;19.30;99.90;;;;;;5036730;28;20100;-75
2023/08/05 08:18:24;;;;;;;4.35;2.42;;;19.30;99.90;;;;;;5036710;28;20049;-75
2023/08/05 08:20:52;;;;;;;7.60;3.58;;;19.50;99.90;;;;;;5034906;28;20025;-75
2023/08/05 08:23:18;;;;;;;5.82;2.33;;;19.70;99.90;;;;;;5036355;28;20048;-74
2023/08/05 08:25:44;;;;;;;6.07;3.13;;;19.90;99.90;;;;;;5035998;28;20032;-75
2023/08/05 08:28:10;;;;;;;9.07;2.75;;;20.10;99.90;;;;;;5035920;28;20017;-75
2023/08/05 08:30:35;;;;;;;3.20;1.75;;;20.20;99.90;;;;;;5034734;28;20435;-75
2023/08/05 08:33:01;;;;;;;3.33;1.63;;;20.20;99.90;;;;;;5035331;28;20026;-75
2023/08/05 08:35:26;;;;;;;1.77;0.73;;;20.20;99.90;;;;;;5035924;28;20416;-74
2023/08/05 08:37:52;;;;;;;2.65;0.68;;;20.30;99.90;;;;;;5035626;28;20052;-75
2023/08/05 08:40:18;;;;;;;1.95;0.90;;;20.30;99.90;;;;;;5034514;28;20030;-75
2023/08/05 08:42:44;;;;;;;1.73;0.80;;;20.30;99.90;;;;;;5035364;28;20029;-74
2023/08/05 08:45:14;;;;;;;2.33;0.80;;;20.20;99.90;;;;;;5035581;28;20026;-75
2023/08/05 08:47:40;;;;;;;4.28;1.20;;;20.20;99.90;;;;;;5035805;28;20392;-75
2023/08/05 08:50:07;;;;;;;2.03;0.65;;;20.10;99.90;;;;;;5035536;28;20104;-75
2023/08/05 08:52:34;;;;;;;1.30;0.70;;;20.00;99.90;;;;;;5035455;28;20028;-75
2023/08/05 08:55:02;;;;;;;2.15;0.93;;;19.90;99.90;;;;;;5035343;28;20366;-74
2023/08/05 08:57:28;;;;;;;1.60;0.85;;;19.90;99.90;;;;;;5035162;28;20056;-75
2023/08/05 08:59:54;;;;;;;2.50;0.90;;;19.90;99.90;;;;;;5035262;28;20029;-75
2023/08/05 09:02:26;;;;;;;1.85;0.50;;;19.90;99.90;;;;;;5034944;28;20033;-75
2023/08/05 09:04:53;;;;;;;1.10;0.50;;;19.80;99.90;;;;;;5034108;28;20032;-75
2023/08/05 09:07:20;;;;;;;2.10;0.40;;;19.80;99.90;;;;;;5035232;28;20014;-75
2023/08/05 09:09:48;;;;;;;0.70;0.20;;;20.00;99.90;;;;;;5035227;28;20033;-75
2023/08/05 09:12:14;;;;;;;2.55;0.63;;;20.10;99.90;;;;;;5034907;28;20057;-75
2023/08/05 09:14:40;;;;;;;2.55;0.30;;;20.40;99.90;;;;;;5034944;28;20030;-75
2023/08/05 09:17:06;;;;;;;1.85;0.50;;;20.60;99.90;;;;;;5035148;28;20026;-75
2023/08/05 09:19:32;;;;;;;1.52;0.40;;;20.80;99.90;;;;;;5033660;28;20025;-75
2023/08/05 09:22:01;;;;;;;2.00;0.40;;;20.90;99.90;;;;;;5034920;28;20021;-75
2023/08/05 09:24:27;;;;;;;1.85;0.60;;;20.80;99.90;;;;;;5033447;28;20034;-76
2023/08/05 09:26:58;;;;;;;1.98;0.65;;;20.80;99.90;;;;;;5034837;28;20036;-75
2023/08/05 09:29:25;;;;;;;1.95;0.40;;;20.90;99.90;;;;;;5035055;28;20037;-75
2023/08/05 09:31:55;;;;;;;5.07;0.57;;;20.90;99.90;;;;;;5034824;28;20598;-75
2023/08/05 09:34:21;;;;;;;1.23;0.50;;;20.80;99.90;;;;;;5034640;28;20017;-75
2023/08/05 09:36:46;;;;;;;1.85;0.38;;;20.70;99.90;;;;;;5034545;28;20022;-75
2023/08/05 09:39:16;;;;;;;4.03;0.70;;;20.70;99.90;;;;;;5034438;28;20024;-75
2023/08/05 09:41:51;;;;;;;1.40;0.52;;;20.70;99.90;;;;;;5034022;28;20013;-75
2023/08/05 09:44:17;;;;;;;3.72;0.77;;;20.90;99.90;;;;;;5034241;28;20029;-75
2023/08/05 09:46:45;;;;;;;1.15;0.43;;;21.00;99.90;;;;;;5034292;28;20036;-75
2023/08/05 09:49:17;;;;;;;1.07;0.80;;;21.00;99.90;;;;;;5034581;28;20048;-75
2023/08/05 09:51:45;;;;;;;2.17;0.55;;;21.10;99.90;;;;;;5034388;28;20018;-75
2023/08/05 09:54:17;;;;;;;1.83;0.35;;;21.20;99.90;;;;;;5034197;28;20037;-75
2023/08/05 09:56:44;;;;;;;2.30;0.57;;;21.30;99.90;;;;;;5034222;28;20025;-75
2023/08/05 09:59:12;;;;;;;1.23;0.40;;;21.10;99.90;;;;;;5033881;28;20029;-73
2023/08/05 10:01:39;;;;;;;13.23;1.63;;;21.00;99.90;;;;;;5034152;28;20029;-75
2023/08/05 10:04:06;;;;;;;1.83;0.98;;;20.70;99.90;;;;;;5032847;28;20614;-75
2023/08/05 10:06:36;;;;;;;2.25;0.60;;;20.60;99.90;;;;;;5033930;28;20106;-75
2023/08/05 10:09:02;;;;;;;1.90;0.95;;;20.50;99.90;;;;;;5034583;28;20049;-75
2023/08/05 10:11:28;;;;;;;1.15;0.50;;;20.40;99.90;;;;;;5033780;28;20542;-75
2023/08/05 10:13:56;;;;;;;1.67;0.70;;;20.50;99.90;;;;;;5033848;28;20033;-75
2023/08/05 10:16:23;;;;;;;2.22;0.57;;;20.50;99.90;;;;;;5033791;28;20030;-75
2023/08/05 10:18:49;;;;;;;1.35;0.50;;;20.60;99.90;;;;;;5033841;28;20017;-75
2023/08/05 10:21:35;;;;;;;3.95;1.20;;;20.70;99.90;;;;;;5034457;28;20424;-75
2023/08/05 10:24:01;;;;;;;1.35;0.95;;;20.70;99.90;;;;;;5034275;28;20018;-74
2023/08/05 10:26:43;;;;;;;4.28;1.35;;;20.80;99.90;;;;;;5033649;28;20029;-75
2023/08/05 10:29:50;;;;;;;2.40;1.05;;;20.80;99.90;;;;;;5033911;28;20033;-75
2023/08/05 10:32:16;;;;;;;4.22;1.38;;;20.60;99.90;;;;;;5027207;28;20048;-75
2023/08/05 10:34:42;;;;;;;4.53;1.13;;;20.40;99.90;;;;;;5034190;28;20412;-75
2023/08/05 10:37:08;;;;;;;3.00;1.38;;;20.20;99.90;;;;;;5034286;28;20113;-75
2023/08/05 10:39:36;;;;;;;4.28;1.48;;;20.10;99.90;;;;;;5032171;28;20017;-75
2023/08/05 10:42:19;;;;;;;3.45;1.13;;;20.20;99.90;;;;;;5033733;28;20402;-75
2023/08/05 10:44:44;;;;;;;3.72;1.70;;;20.20;99.90;;;;;;5032612;28;20033;-75
2023/08/05 10:47:11;;;;;;;4.22;1.70;;;20.10;99.90;;;;;;5033764;28;20030;-75
2023/08/05 10:49:36;;;;;;;3.03;1.75;;;20.00;99.90;;;;;;5033450;28;20033;-75
2023/08/05 10:52:02;;;;;;;4.63;1.30;;;19.90;99.90;;;;;;5033391;28;20026;-75
2023/08/05 10:54:31;;;;;;;2.25;1.02;;;19.90;99.90;;;;;;5036596;28;20025;-75
2023/08/05 10:56:57;;;;;;;3.17;1.00;;;19.90;99.90;;;;;;5036420;28;20026;-75
2023/08/05 10:59:22;;;;;;;3.25;0.75;;;19.80;99.90;;;;;;5036366;28;20036;-75
2023/08/05 11:01:53;;;;;;;3.55;0.55;;;19.60;99.90;;;;;;5037180;28;20384;-75
2023/08/05 11:04:31;;;;;;;0.65;0.43;;;19.60;99.90;;;;;;5035855;28;20025;-75
2023/08/05 11:06:59;;;;;;;;;;;19.40;99.90;;;;;;5038273;28;20093;-75
2023/08/05 11:09:26;;;;;;;3.95;0.80;;;19.20;99.90;;;;;;5037479;28;19905;-75
2023/08/05 11:11:51;;;;;;;2.72;0.73;;;19.00;99.90;;;;;;5037658;28;20108;-74
2023/08/05 11:14:18;;;;;;;2.03;0.50;;;18.90;99.90;;;;;;5037371;28;20053;-75
2023/08/05 11:16:45;;;;;;;2.85;0.60;;;18.90;99.90;;;;;;5038455;28;20017;-74
2023/08/05 11:19:11;;;;;;;3.80;0.90;;;18.90;99.90;;;;;;5037149;28;20080;-74
2023/08/05 11:21:38;;;;;;;3.78;0.68;;;18.90;99.90;;;;;;5037640;28;20021;-74
2023/08/05 11:24:04;;;;;;;1.65;0.38;;;19.00;99.90;;;;;;5035675;28;20400;-75
2023/08/05 11:26:30;;;;;;;3.95;0.75;;;19.00;99.90;;;;;;5037030;28;20082;-75
2023/08/05 11:29:00;;;;;;;2.15;0.80;;;19.20;99.90;;;;;;5037237;28;20029;-75
2023/08/05 11:31:26;;;;;;;1.45;0.20;;;19.20;99.90;;;;;;5035857;28;20018;-75
2023/08/05 11:33:55;;;;;;;2.22;0.25;;;19.20;99.90;;;;;;5037085;28;20037;-75
2023/08/05 11:36:25;;;;;;;2.92;0.32;;;19.20;99.90;;;;;;5037461;28;20028;-75
2023/08/05 11:38:51;;;;;;;4.25;0.52;;;19.20;99.90;;;;;;5035695;28;20503;-74
2023/08/05 11:41:17;;;;;;;1.88;0.20;;;19.10;99.90;;;;;;5036783;28;20013;-75
2023/08/05 11:43:42;;;;;;;2.60;0.28;;;18.90;99.90;;;;;;5036483;28;20481;-75
2023/08/05 11:46:26;;;;;;;2.53;0.30;;;18.80;99.90;;;;;;5036681;28;20083;-75
2023/08/05 11:49:12;;;;;;;1.85;0.20;;;18.70;99.90;;;;;;5035390;28;20191;-75
2023/08/05 11:51:45;;;;;;;1.92;0.30;;;18.50;99.90;;;;;;5036481;28;20061;-75
2023/08/05 11:54:10;;;;;;;3.67;0.63;;;18.50;99.90;;;;;;5036946;28;20072;-75
2023/08/05 11:56:36;;;;;;;2.10;0.52;;;18.50;99.90;;;;;;5036422;28;20051;-75
2023/08/05 11:59:01;;;;;;;1.80;0.30;;;18.50;99.90;;;;;;5036284;28;20485;-75
2023/08/05 12:01:27;;;;;;;1.63;0.52;;;18.50;99.90;;;;;;5035345;28;20071;-74
2023/08/05 12:03:57;;;;;;;2.03;0.68;;;18.50;99.90;;;;;;5036116;28;20040;-75
2023/08/05 12:06:26;;;;;;;2.58;0.30;;;18.40;99.90;;;;;;5036737;28;20021;-76
2023/08/05 12:08:58;;;;;;;3.80;0.65;;;18.30;99.90;;;;;;5036075;28;20432;-75
2023/08/05 12:11:24;;;;;;;1.75;0.32;;;18.20;99.90;;;;;;5036272;28;20029;-74
2023/08/05 12:13:50;;;;;;;3.60;0.20;;;18.10;99.90;;;;;;5036039;28;20052;-74
2023/08/05 12:16:16;;;;;;;1.08;0.15;;;18.00;99.90;;;;;;5034775;28;20017;-74
2023/08/05 12:18:46;;;;;;;2.22;0.55;;;17.90;99.90;;;;;;5036421;28;20018;-75
2023/08/05 12:21:13;;;;;;;2.83;0.60;;;17.90;99.90;;;;;;5035816;28;20022;-75
2023/08/05 12:23:42;;;;;;;1.05;0.25;;;17.80;99.90;;;;;;5035786;28;20535;-75
2023/08/05 12:26:10;;;;;;;0.95;0.13;;;17.70;99.90;;;;;;5035698;28;20459;-75
2023/08/05 12:28:37;;;;;;;1.55;0.63;;;17.70;99.90;;;;;;5034680;28;20104;-75
2023/08/05 12:31:03;;;;;;;2.88;0.65;;;17.70;99.90;;;;;;5035814;28;20024;-75
2023/08/05 12:33:29;;;;;;;2.83;0.35;;;17.70;99.90;;;;;;5034457;28;20459;-75
2023/08/05 12:35:55;;;;;;;0.75;0.10;;;17.50;99.90;;;;;;5035540;28;20017;-75
2023/08/05 12:38:20;;;;;;;0.50;0.20;;;17.40;99.90;;;;;;5035533;28;20393;-75
2023/08/05 12:40:46;;;;;;;1.08;0.22;;;17.40;99.90;;;;;;5035827;28;20017;-75
2023/08/05 12:43:12;;;;;;;2.17;0.47;;;17.30;99.90;;;;;;5035511;28;20028;-75